Time;durP1;ratioP1;P1;durP2;ratioP2;P2;SDS_P1;SDS_P2;PMS_P1;PMS_P2;Temp;Humidity;BMP_temperature;BMP_pressure;BME280_temperature;BME280_humidity;BME280_pressure;Samples;Min_cycle;Max_cycle;Signal;HPM_P1;HPM_P2
2022/12/21 00:01:09;;;;;;;4.68;3.55;;;;;;;;;;5116760;28;20051;-56
2022/12/21 00:03:35;;;;;;;6.22;3.67;;;;;;;;;;5116749;28;20093;-55
2022/12/21 00:06:01;;;;;;;3.92;3.53;;;;;;;;;;5117302;28;20365;-55
2022/12/21 00:08:27;;;;;;;9.45;3.90;;;;;;;;;;5116286;28;20024;-55
2022/12/21 00:10:58;;;;;;;6.15;3.78;;;;;;;;;;5115483;28;20404;-56
2022/12/21 00:13:24;;;;;;;5.35;4.28;;;;;;;;;;5117005;28;20032;-56
2022/12/21 00:16:04;;;;;;;6.57;4.50;;;;;;;;;;5117031;28;20111;-55
2022/12/21 00:18:34;;;;;;;5.22;4.70;;;;;;;;;;5116417;28;20073;-56
2022/12/21 00:21:10;;;;;;;8.97;5.10;;;;;;;;;;5116393;28;20024;-55
2022/12/21 00:23:36;;;;;;;7.20;4.97;;;;;;;;;;5116618;28;20242;-56
2022/12/21 00:26:04;;;;;;;10.20;5.30;;;;;;;;;;5116425;28;20027;-56
2022/12/21 00:28:31;;;;;;;7.47;5.30;;;;;;;;;;5116194;28;20055;-56
2022/12/21 00:31:03;;;;;;;7.05;5.18;;;;;;;;;;5116624;28;20051;-56
2022/12/21 00:33:29;;;;;;;7.07;4.03;;;;;;;;;;5116447;28;20063;-57
2022/12/21 00:35:55;;;;;;;6.50;4.60;;;;;;;;;;5116093;28;20024;-54
2022/12/21 00:38:21;;;;;;;5.82;4.55;;;;;;;;;;5115988;28;20028;-55
2022/12/21 00:40:55;;;;;;;8.68;5.68;;;;;;;;;;5116231;28;20077;-56
2022/12/21 00:43:21;;;;;;;7.45;5.45;;;;;;;;;;5115903;28;20026;-55
2022/12/21 00:45:47;;;;;;;7.15;5.25;;;;;;;;;;5116083;28;20031;-54
2022/12/21 00:48:13;;;;;;;6.50;4.45;;;;;;;;;;5115735;28;20120;-56
2022/12/21 00:50:39;;;;;;;7.05;6.15;;;;;;;;;;5115958;28;20019;-52
2022/12/21 00:53:05;;;;;;;6.38;4.78;;;;;;;;;;5116208;28;20028;-55
2022/12/21 00:55:31;;;;;;;5.53;4.75;;;;;;;;;;5115723;28;20024;-56
2022/12/21 00:57:59;;;;;;;7.47;4.85;;;;;;;;;;5116483;28;20395;-56
2022/12/21 01:00:25;;;;;;;6.35;4.28;;;;;;;;;;5115514;28;20024;-55
2022/12/21 01:02:51;;;;;;;9.23;4.38;;;;;;;;;;5115730;28;20122;-55
2022/12/21 01:05:17;;;;;;;5.20;4.10;;;;;;;;;;5115763;28;20059;-56
2022/12/21 01:07:43;;;;;;;5.20;4.47;;;;;;;;;;5115413;28;20032;-56
2022/12/21 01:10:09;;;;;;;10.23;3.72;;;;;;;;;;5115671;28;20027;-56
2022/12/21 01:12:36;;;;;;;7.53;4.28;;;;;;;;;;5115307;28;20030;-53
2022/12/21 01:15:02;;;;;;;6.95;4.20;;;;;;;;;;5115357;28;20104;-55
2022/12/21 01:17:28;;;;;;;8.50;4.07;;;;;;;;;;5115219;28;20059;-55
2022/12/21 01:19:54;;;;;;;6.45;4.57;;;;;;;;;;5114917;28;20104;-55
2022/12/21 01:22:20;;;;;;;5.93;4.60;;;;;;;;;;5114642;28;20020;-56
2022/12/21 01:24:46;;;;;;;7.43;4.97;;;;;;;;;;5115545;28;20031;-55
2022/12/21 01:27:12;;;;;;;7.50;5.45;;;;;;;;;;5115069;28;20032;-56
2022/12/21 01:29:38;;;;;;;7.25;4.28;;;;;;;;;;5115028;28;20035;-56
2022/12/21 01:32:05;;;;;;;6.97;4.88;;;;;;;;;;5115450;28;20114;-56
2022/12/21 01:34:31;;;;;;;6.15;4.85;;;;;;;;;;5115225;28;20143;-56
2022/12/21 01:36:57;;;;;;;6.32;5.00;;;;;;;;;;5114567;28;20488;-56
2022/12/21 01:39:23;;;;;;;6.13;4.95;;;;;;;;;;5114811;28;20376;-54
2022/12/21 01:41:49;;;;;;;5.15;4.32;;;;;;;;;;5096531;28;20028;-56
2022/12/21 01:44:34;;;;;;;11.40;5.82;;;;;;;;;;5115039;28;20080;-56
2022/12/21 01:47:00;;;;;;;5.25;4.30;;;;;;;;;;5096395;28;20027;-54
2022/12/21 01:49:29;;;;;;;4.45;3.50;;;;;;;;;;5114633;28;20468;-56
2022/12/21 01:52:00;;;;;;;6.50;3.42;;;;;;;;;;5114561;28;20012;-55
2022/12/21 01:54:26;;;;;;;;;;;;;;;;;;5114625;28;20533;-54
2022/12/21 01:56:54;;;;;;;6.20;3.17;;;;;;;;;;5114505;28;19994;-56
2022/12/21 01:59:23;;;;;;;3.75;3.20;;;;;;;;;;5114421;28;20023;-56
2022/12/21 02:01:49;;;;;;;5.13;2.95;;;;;;;;;;5114477;28;20059;-55
2022/12/21 02:04:15;;;;;;;5.90;3.85;;;;;;;;;;5114885;28;20039;-56
2022/12/21 02:06:45;;;;;;;5.18;3.85;;;;;;;;;;5114661;28;20028;-56
2022/12/21 02:09:11;;;;;;;4.03;2.90;;;;;;;;;;5114410;28;20028;-57
2022/12/21 02:11:37;;;;;;;4.57;3.38;;;;;;;;;;5114320;28;20027;-56
2022/12/21 02:14:03;;;;;;;4.60;2.80;;;;;;;;;;5115167;28;20035;-56
2022/12/21 02:16:34;;;;;;;4.05;3.40;;;;;;;;;;5114765;28;20377;-55
2022/12/21 02:19:00;;;;;;;;;;;;;;;;;;5114824;28;20054;-57
2022/12/21 02:21:27;;;;;;;6.43;3.03;;;;;;;;;;5114679;28;20006;-56
2022/12/21 02:24:15;;;;;;;5.00;4.00;;;;;;;;;;5114142;28;20032;-56
2022/12/21 02:26:59;;;;;;;4.25;3.03;;;;;;;;;;5114219;28;20034;-56
2022/12/21 02:29:28;;;;;;;4.07;3.03;;;;;;;;;;5113782;28;20016;-55
2022/12/21 02:32:07;;;;;;;5.60;2.80;;;;;;;;;;5114664;28;20038;-56
2022/12/21 02:34:35;;;;;;;7.32;3.03;;;;;;;;;;5116278;28;20067;-56
2022/12/21 02:37:07;;;;;;;5.53;3.33;;;;;;;;;;5118363;28;20024;-55
2022/12/21 02:39:45;;;;;;;3.35;2.50;;;;;;;;;;5118876;28;20032;-55
2022/12/21 02:45:20;;;;;;;7.13;2.67;;;;;;;;;;5118093;28;20073;-56
2022/12/21 02:47:56;;;;;;;3.50;2.45;;;;;;;;;;5118541;28;20077;-55
2022/12/21 02:50:24;;;;;;;3.90;2.65;;;;;;;;;;5117968;28;20020;-57
2022/12/21 02:53:01;;;;;;;4.20;2.67;;;;;;;;;;5118009;28;20431;-57
2022/12/21 02:55:27;;;;;;;8.60;2.72;;;;;;;;;;5118371;28;20032;-56
2022/12/21 02:58:11;;;;;;;5.28;3.10;;;;;;;;;;5117957;28;20023;-56
2022/12/21 03:00:40;;;;;;;2.88;1.63;;;;;;;;;;5118290;28;20111;-55
2022/12/21 03:06:18;;;;;;;3.65;2.20;;;;;;;;;;5117621;28;20034;-56
2022/12/21 03:08:53;;;;;;;5.05;2.60;;;;;;;;;;5118129;28;20033;-56
2022/12/21 03:11:20;;;;;;;5.57;2.95;;;;;;;;;;5118029;28;20072;-56
2022/12/21 03:14:09;;;;;;;3.08;2.42;;;;;;;;;;5117714;28;20077;-56
2022/12/21 03:16:34;;;;;;;2.53;1.80;;;;;;;;;;5104902;28;20044;-57
2022/12/21 03:19:12;;;;;;;4.25;1.65;;;;;;;;;;5117582;28;20361;-56
2022/12/21 03:21:40;;;;;;;3.80;2.40;;;;;;;;;;5117907;28;20106;-53
2022/12/21 03:24:26;;;;;;;2.92;2.03;;;;;;;;;;5117354;28;20111;-57
2022/12/21 03:27:10;;;;;;;4.32;2.65;;;;;;;;;;5117377;28;20107;-57
2022/12/21 03:29:38;;;;;;;4.20;2.90;;;;;;;;;;5117399;28;20059;-58
2022/12/21 03:32:10;;;;;;;3.03;2.30;;;;;;;;;;5117058;28;20068;-57
2022/12/21 03:34:39;;;;;;;3.28;2.08;;;;;;;;;;5117641;28;20028;-57
2022/12/21 03:37:10;;;;;;;4.75;2.40;;;;;;;;;;5117184;28;20074;-57
2022/12/21 03:39:44;;;;;;;2.55;1.75;;;;;;;;;;5117230;28;20027;-56
2022/12/21 03:42:13;;;;;;;3.85;2.42;;;;;;;;;;5117698;28;20027;-56
2022/12/21 03:44:45;;;;;;;4.35;2.53;;;;;;;;;;5117224;28;20354;-56
2022/12/21 03:47:14;;;;;;;4.40;2.05;;;;;;;;;;5117020;28;20028;-57
2022/12/21 03:49:49;;;;;;;2.67;1.63;;;;;;;;;;5117050;28;20031;-56
2022/12/21 03:52:16;;;;;;;4.60;2.70;;;;;;;;;;5116646;28;20034;-57
2022/12/21 03:54:45;;;;;;;3.75;2.50;;;;;;;;;;5116860;28;20198;-54
2022/12/21 03:57:11;;;;;;;2.88;2.03;;;;;;;;;;5117147;28;20112;-56
2022/12/21 03:59:40;;;;;;;3.75;1.67;;;;;;;;;;5116778;28;20032;-56
2022/12/21 04:02:35;;;;;;;5.10;2.50;;;;;;;;;;5116555;28;20048;-56
2022/12/21 04:05:13;;;;;;;2.78;1.88;;;;;;;;;;5095271;28;20044;-55
2022/12/21 04:07:40;;;;;;;4.03;2.05;;;;;;;;;;5116670;28;20080;-56
2022/12/21 04:10:08;;;;;;;2.05;1.33;;;;;;;;;;5117171;28;20102;-56
2022/12/21 04:12:37;;;;;;;2.95;2.35;;;;;;;;;;5116864;28;20027;-57
2022/12/21 04:15:23;;;;;;;4.30;2.42;;;;;;;;;;5116489;28;20465;-57
2022/12/21 04:17:50;;;;;;;3.83;1.52;;;;;;;;;;5116396;28;20036;-57
2022/12/21 04:20:21;;;;;;;3.78;1.65;;;;;;;;;;5116327;28;20028;-57
2022/12/21 04:28:27;;;;;;;5.07;1.65;;;;;;;;;;5116568;28;20038;-57
2022/12/21 04:30:54;;;;;;;2.42;1.42;;;;;;;;;;5116182;28;20095;-55
2022/12/21 04:33:21;;;;;;;2.60;1.80;;;;;;;;;;5116538;28;20046;-57
2022/12/21 04:38:33;;;;;;;3.08;1.60;;;;;;;;;;5116259;28;20034;-57
2022/12/21 04:40:58;;;;;;;4.03;1.95;;;;;;;;;;5116147;28;20107;-58
2022/12/21 04:43:25;;;;;;;2.97;1.63;;;;;;;;;;5115792;28;20074;-56
2022/12/21 04:46:05;;;;;;;3.25;2.13;;;;;;;;;;5116014;28;20028;-57
2022/12/21 04:48:31;;;;;;;2.63;1.88;;;;;;;;;;5115991;28;20076;-56
2022/12/21 04:51:02;;;;;;;3.17;1.85;;;;;;;;;;5115796;28;20342;-56
2022/12/21 04:53:28;;;;;;;3.33;1.70;;;;;;;;;;5116066;28;20024;-56
2022/12/21 04:55:54;;;;;;;2.17;1.42;;;;;;;;;;5116116;28;20027;-57
2022/12/21 04:58:20;;;;;;;9.52;2.65;;;;;;;;;;5115183;28;20137;-57
2022/12/21 05:00:46;;;;;;;2.25;1.50;;;;;;;;;;5115638;28;20410;-57
2022/12/21 05:03:12;;;;;;;3.63;1.58;;;;;;;;;;5116416;28;20055;-55
2022/12/21 05:05:38;;;;;;;6.22;2.03;;;;;;;;;;5115855;28;20039;-57
2022/12/21 05:08:04;;;;;;;2.95;1.58;;;;;;;;;;5115594;28;20036;-57
2022/12/21 05:10:30;;;;;;;12.80;2.80;;;;;;;;;;5115235;28;20103;-57
2022/12/21 05:12:56;;;;;;;3.83;2.25;;;;;;;;;;5115476;28;20047;-57
2022/12/21 05:15:22;;;;;;;3.85;1.92;;;;;;;;;;5116068;28;20046;-57
2022/12/21 05:17:48;;;;;;;3.47;1.55;;;;;;;;;;5115262;28;20484;-57
2022/12/21 05:20:13;;;;;;;2.88;2.45;;;;;;;;;;5115622;28;20055;-56
2022/12/21 05:22:39;;;;;;;2.97;1.95;;;;;;;;;;5115245;28;20377;-57
2022/12/21 05:25:05;;;;;;;1.92;1.70;;;;;;;;;;5115179;28;20055;-57
2022/12/21 05:27:31;;;;;;;2.80;1.88;;;;;;;;;;5115017;28;20033;-57
2022/12/21 05:29:57;;;;;;;5.32;2.22;;;;;;;;;;5115134;28;20453;-56
2022/12/21 05:32:23;;;;;;;2.35;1.63;;;;;;;;;;5114776;28;20416;-57
2022/12/21 05:34:49;;;;;;;6.32;1.95;;;;;;;;;;5115126;28;20377;-57
2022/12/21 05:37:15;;;;;;;2.78;1.35;;;;;;;;;;5115019;28;20418;-57
2022/12/21 05:39:41;;;;;;;3.80;1.48;;;;;;;;;;5114975;28;20434;-57
2022/12/21 05:42:07;;;;;;;2.67;1.48;;;;;;;;;;5115153;28;20051;-56
2022/12/21 05:44:33;;;;;;;2.65;1.67;;;;;;;;;;5115049;28;20385;-57
2022/12/21 05:46:59;;;;;;;2.78;1.83;;;;;;;;;;5114753;28;20474;-57
2022/12/21 05:49:25;;;;;;;2.78;1.73;;;;;;;;;;5114964;28;20028;-57
2022/12/21 05:51:51;;;;;;;5.00;1.58;;;;;;;;;;5115338;28;20035;-57
2022/12/21 05:54:17;;;;;;;3.80;1.55;;;;;;;;;;5115178;28;20021;-57
2022/12/21 05:56:43;;;;;;;3.92;1.75;;;;;;;;;;5114714;28;20065;-57
2022/12/21 05:59:09;;;;;;;3.38;1.90;;;;;;;;;;5115460;28;20023;-57
2022/12/21 06:01:35;;;;;;;2.53;1.48;;;;;;;;;;5114429;28;20043;-57
2022/12/21 06:04:01;;;;;;;5.38;1.40;;;;;;;;;;5114433;28;20419;-57
2022/12/21 06:06:27;;;;;;;3.13;1.77;;;;;;;;;;5115243;28;20024;-56
2022/12/21 06:08:53;;;;;;;2.70;1.77;;;;;;;;;;5113621;28;20024;-57
2022/12/21 06:11:20;;;;;;;1.63;0.82;;;;;;;;;;5114914;28;20024;-57
2022/12/21 06:13:47;;;;;;;4.80;1.95;;;;;;;;;;5114653;28;20027;-57
2022/12/21 06:16:17;;;;;;;2.95;1.63;;;;;;;;;;5095736;28;20035;-56
2022/12/21 06:18:43;;;;;;;2.47;1.50;;;;;;;;;;5115179;28;20078;-57
2022/12/21 06:21:11;;;;;;;2.13;1.35;;;;;;;;;;5114305;28;20031;-57
2022/12/21 06:23:37;;;;;;;2.28;1.40;;;;;;;;;;5114307;28;20020;-57
2022/12/21 06:26:04;;;;;;;3.50;1.35;;;;;;;;;;5114204;28;20457;-56
2022/12/21 06:28:30;;;;;;;2.35;1.52;;;;;;;;;;5114221;28;20031;-57
2022/12/21 06:31:02;;;;;;;2.30;1.20;;;;;;;;;;5114197;28;20096;-57
2022/12/21 06:33:28;;;;;;;3.45;2.00;;;;;;;;;;5114971;28;20353;-57
2022/12/21 06:35:55;;;;;;;2.83;1.58;;;;;;;;;;5115039;28;20023;-57
2022/12/21 06:38:21;;;;;;;3.85;2.08;;;;;;;;;;5114550;28;20081;-57
2022/12/21 06:40:52;;;;;;;3.75;1.92;;;;;;;;;;5114038;28;20407;-57
2022/12/21 06:43:18;;;;;;;6.50;1.92;;;;;;;;;;5114433;28;20027;-57
2022/12/21 06:45:44;;;;;;;2.40;1.45;;;;;;;;;;5114323;28;20038;-57
2022/12/21 06:48:10;;;;;;;3.92;1.52;;;;;;;;;;5113941;28;20107;-58
2022/12/21 06:50:36;;;;;;;2.42;1.50;;;;;;;;;;5113964;28;20016;-57
2022/12/21 06:53:02;;;;;;;3.95;1.02;;;;;;;;;;5113871;28;20380;-57
2022/12/21 06:55:28;;;;;;;2.08;1.30;;;;;;;;;;5114086;28;20378;-57
2022/12/21 06:57:54;;;;;;;2.25;1.52;;;;;;;;;;5114111;28;20023;-57
2022/12/21 07:00:20;;;;;;;2.50;1.58;;;;;;;;;;5114313;28;20343;-57
2022/12/21 07:02:46;;;;;;;2.20;1.20;;;;;;;;;;5113729;28;20040;-57
2022/12/21 07:05:12;;;;;;;2.13;1.48;;;;;;;;;;5113795;28;20038;-57
2022/12/21 07:07:38;;;;;;;3.92;2.35;;;;;;;;;;5113858;28;20133;-57
2022/12/21 07:10:05;;;;;;;5.50;1.25;;;;;;;;;;5114093;28;20055;-55
2022/12/21 07:12:30;;;;;;;6.18;1.67;;;;;;;;;;5113817;28;20030;-57
2022/12/21 07:14:56;;;;;;;12.18;2.47;;;;;;;;;;5114134;28;20415;-58
2022/12/21 07:17:22;;;;;;;4.22;1.67;;;;;;;;;;5113409;28;20362;-57
2022/12/21 07:19:48;;;;;;;2.97;1.67;;;;;;;;;;5114178;28;20030;-55
2022/12/21 07:22:14;;;;;;;1.98;1.42;;;;;;;;;;5117607;28;20445;-57
2022/12/21 07:24:40;;;;;;;3.28;1.65;;;;;;;;;;5118086;28;20028;-57
2022/12/21 07:27:06;;;;;;;2.33;1.27;;;;;;;;;;5117457;28;20051;-57
2022/12/21 07:29:32;;;;;;;2.22;1.48;;;;;;;;;;5117504;28;20389;-58
2022/12/21 07:31:58;;;;;;;3.30;1.88;;;;;;;;;;5117961;28;20102;-58
2022/12/21 07:34:24;;;;;;;2.55;1.35;;;;;;;;;;5117417;28;20032;-58
2022/12/21 07:36:50;;;;;;;2.65;1.75;;;;;;;;;;5117222;28;20024;-57
2022/12/21 07:39:16;;;;;;;2.55;1.38;;;;;;;;;;5117307;28;20083;-57
2022/12/21 07:41:42;;;;;;;2.15;1.00;;;;;;;;;;5117789;28;20103;-58
2022/12/21 07:44:08;;;;;;;1.63;1.00;;;;;;;;;;5117989;28;20034;-55
2022/12/21 07:46:34;;;;;;;1.77;0.98;;;;;;;;;;5117915;28;20085;-58
2022/12/21 07:49:00;;;;;;;2.53;1.27;;;;;;;;;;5117018;28;20050;-57
2022/12/21 07:51:26;;;;;;;2.97;1.45;;;;;;;;;;5099484;28;20063;-57
2022/12/21 07:53:52;;;;;;;1.40;0.88;;;;;;;;;;5116767;28;20076;-56
2022/12/21 07:56:18;;;;;;;3.25;1.90;;;;;;;;;;5116979;28;20027;-55
2022/12/21 07:58:45;;;;;;;2.42;1.15;;;;;;;;;;5117423;28;20111;-57
2022/12/21 08:01:12;;;;;;;2.33;1.50;;;;;;;;;;5116836;28;20415;-57
2022/12/21 08:03:39;;;;;;;3.38;1.58;;;;;;;;;;5116786;28;20027;-57
2022/12/21 08:06:06;;;;;;;10.10;3.85;;;;;;;;;;5117017;28;20028;-57
2022/12/21 08:08:32;;;;;;;4.22;2.05;;;;;;;;;;5116603;28;20462;-56
2022/12/21 08:10:58;;;;;;;2.72;1.70;;;;;;;;;;5117066;28;20024;-58
2022/12/21 08:13:24;;;;;;;2.70;1.33;;;;;;;;;;5116646;28;20020;-57
2022/12/21 08:15:58;;;;;;;3.03;1.73;;;;;;;;;;5116655;28;20035;-57
2022/12/21 08:18:24;;;;;;;6.30;1.25;;;;;;;;;;5117040;28;20104;-57
2022/12/21 08:20:50;;;;;;;2.10;1.27;;;;;;;;;;5116976;28;20442;-58
2022/12/21 08:23:16;;;;;;;2.92;1.73;;;;;;;;;;5116379;28;20476;-56
2022/12/21 08:25:42;;;;;;;3.67;1.48;;;;;;;;;;5116688;28;20028;-57
2022/12/21 08:28:07;;;;;;;6.30;1.52;;;;;;;;;;5116836;28;20514;-57
2022/12/21 08:30:33;;;;;;;3.38;3.03;;;;;;;;;;5116402;28;20487;-55
2022/12/21 08:32:59;;;;;;;2.80;1.67;;;;;;;;;;5115211;28;20057;-58
2022/12/21 08:35:28;;;;;;;2.28;1.42;;;;;;;;;;5116534;28;20019;-58
2022/12/21 08:37:54;;;;;;;3.22;2.15;;;;;;;;;;5115910;28;20024;-58
2022/12/21 08:40:20;;;;;;;3.50;1.88;;;;;;;;;;5116231;28;20292;-57
2022/12/21 08:42:46;;;;;;;3.47;1.80;;;;;;;;;;5116038;28;20020;-57
2022/12/21 08:45:12;;;;;;;2.70;1.50;;;;;;;;;;5116305;28;20027;-58
2022/12/21 08:47:39;;;;;;;2.85;1.45;;;;;;;;;;5115897;28;20377;-57
2022/12/21 08:50:05;;;;;;;2.72;1.48;;;;;;;;;;5116110;28;20073;-57
2022/12/21 08:52:31;;;;;;;3.28;2.03;;;;;;;;;;5115734;28;20371;-58
2022/12/21 08:54:57;;;;;;;2.38;1.50;;;;;;;;;;5116100;28;20032;-59
2022/12/21 08:57:23;;;;;;;10.15;1.40;;;;;;;;;;5115487;28;20035;-57
2022/12/21 08:59:49;;;;;;;2.55;1.70;;;;;;;;;;5116175;28;20343;-56
2022/12/21 09:02:15;;;;;;;3.05;1.23;;;;;;;;;;5116249;28;20055;-57
2022/12/21 09:04:41;;;;;;;8.02;2.30;;;;;;;;;;5115903;28;20031;-57
2022/12/21 09:07:07;;;;;;;3.30;1.55;;;;;;;;;;5115270;28;20118;-58
2022/12/21 09:09:33;;;;;;;3.60;1.45;;;;;;;;;;5115691;28;20373;-58
2022/12/21 09:12:00;;;;;;;3.45;1.20;;;;;;;;;;5115817;28;20377;-57
2022/12/21 09:14:26;;;;;;;2.35;1.50;;;;;;;;;;5115819;28;20028;-58
2022/12/21 09:16:52;;;;;;;3.85;1.35;;;;;;;;;;5115522;28;20031;-57
2022/12/21 09:19:18;;;;;;;2.70;1.67;;;;;;;;;;5115334;28;20472;-57
2022/12/21 09:21:44;;;;;;;2.75;1.60;;;;;;;;;;5115483;28;20061;-58
2022/12/21 09:24:10;;;;;;;2.08;1.25;;;;;;;;;;5115452;28;20028;-57
2022/12/21 09:26:36;;;;;;;4.07;1.92;;;;;;;;;;5115816;28;20028;-56
2022/12/21 09:29:02;;;;;;;2.13;1.65;;;;;;;;;;5115831;28;20020;-58
2022/12/21 09:31:28;;;;;;;2.20;1.50;;;;;;;;;;5115005;28;20457;-58
2022/12/21 09:33:55;;;;;;;3.00;1.73;;;;;;;;;;5115362;28;20027;-59
2022/12/21 09:36:21;;;;;;;3.22;1.73;;;;;;;;;;5115753;28;20461;-59
2022/12/21 09:38:47;;;;;;;2.63;1.40;;;;;;;;;;5114967;28;20373;-58
2022/12/21 09:41:13;;;;;;;4.45;1.73;;;;;;;;;;5115004;28;20020;-58
2022/12/21 09:43:52;;;;;;;2.50;1.98;;;;;;;;;;5114764;28;20023;-60
2022/12/21 09:46:18;;;;;;;2.35;1.63;;;;;;;;;;5114650;28;20027;-58
2022/12/21 09:48:47;;;;;;;2.08;1.33;;;;;;;;;;5115434;28;20031;-58
2022/12/21 09:51:15;;;;;;;2.35;1.42;;;;;;;;;;5115208;28;20054;-58
2022/12/21 09:53:48;;;;;;;2.90;1.60;;;;;;;;;;5114717;28;20460;-58
2022/12/21 09:56:16;;;;;;;2.40;1.98;;;;;;;;;;5115345;28;20054;-58
2022/12/21 09:58:43;;;;;;;5.55;1.92;;;;;;;;;;5114687;28;20066;-58
2022/12/21 10:01:17;;;;;;;2.90;1.88;;;;;;;;;;5114318;28;20024;-60
2022/12/21 10:03:52;;;;;;;4.15;1.50;;;;;;;;;;5115089;28;20149;-57
2022/12/21 10:06:34;;;;;;;3.03;2.45;;;;;;;;;;5114308;28;20027;-58
2022/12/21 10:09:06;;;;;;;2.45;1.20;;;;;;;;;;5096829;28;20122;-58
2022/12/21 10:11:38;;;;;;;1.67;1.17;;;;;;;;;;5114481;28;20073;-58
2022/12/21 10:14:13;;;;;;;2.13;1.40;;;;;;;;;;5114907;28;20027;-58
2022/12/21 10:16:46;;;;;;;1.63;1.00;;;;;;;;;;5114842;28;20030;-58
2022/12/21 10:19:12;;;;;;;2.20;1.45;;;;;;;;;;5114996;28;20066;-58
2022/12/21 10:21:38;;;;;;;2.58;1.70;;;;;;;;;;5114395;28;20024;-59
2022/12/21 10:24:06;;;;;;;2.67;1.55;;;;;;;;;;5114626;28;20342;-59
2022/12/21 10:26:33;;;;;;;2.25;1.42;;;;;;;;;;5114189;28;20046;-58
2022/12/21 10:29:02;;;;;;;3.65;1.73;;;;;;;;;;5113984;28;20088;-58
2022/12/21 10:31:31;;;;;;;3.05;1.83;;;;;;;;;;5113982;28;20369;-58
2022/12/21 10:33:58;;;;;;;2.40;1.58;;;;;;;;;;5114319;28;20481;-59
2022/12/21 10:36:32;;;;;;;2.83;1.90;;;;;;;;;;5114204;28;20093;-59
2022/12/21 10:38:58;;;;;;;1.98;1.27;;;;;;;;;;5114490;28;20399;-56
2022/12/21 10:41:28;;;;;;;2.30;1.50;;;;;;;;;;5114676;28;20032;-59
2022/12/21 10:43:55;;;;;;;2.72;1.58;;;;;;;;;;5114447;28;20020;-57
2022/12/21 10:46:23;;;;;;;3.25;1.63;;;;;;;;;;5114123;28;20027;-57
2022/12/21 10:48:50;;;;;;;2.78;1.58;;;;;;;;;;5114342;28;20024;-59
2022/12/21 10:51:28;;;;;;;2.25;1.38;;;;;;;;;;5114121;28;20039;-57
2022/12/21 10:54:08;;;;;;;2.72;1.85;;;;;;;;;;5114343;28;20024;-59
2022/12/21 10:56:36;;;;;;;2.65;1.63;;;;;;;;;;5117417;28;20020;-59
2022/12/21 10:59:20;;;;;;;6.25;1.92;;;;;;;;;;5117728;28;20034;-59
2022/12/21 11:01:46;;;;;;;2.63;2.08;;;;;;;;;;5099596;28;20139;-59
2022/12/21 11:04:17;;;;;;;2.67;1.67;;;;;;;;;;5117946;28;20046;-59
2022/12/21 11:07:02;;;;;;;4.68;3.03;;;;;;;;;;5118253;28;20032;-59
2022/12/21 11:09:33;;;;;;;1.88;1.45;;;;;;;;;;5118392;28;20028;-56
2022/12/21 11:12:18;;;;;;;3.08;1.58;;;;;;;;;;5117800;28;20515;-57
2022/12/21 11:14:44;;;;;;;4.10;1.83;;;;;;;;;;5117837;28;20358;-57
2022/12/21 11:17:14;;;;;;;2.85;1.63;;;;;;;;;;5118095;28;20072;-57
2022/12/21 11:19:40;;;;;;;2.47;1.48;;;;;;;;;;5117685;28;20020;-57
2022/12/21 11:22:07;;;;;;;5.22;1.85;;;;;;;;;;5117732;28;20045;-58
2022/12/21 11:24:34;;;;;;;3.22;1.63;;;;;;;;;;5118388;28;20103;-56
2022/12/21 11:27:12;;;;;;;2.65;1.80;;;;;;;;;;5118076;28;20122;-57
2022/12/21 11:29:53;;;;;;;2.50;1.92;;;;;;;;;;5118082;28;20093;-56
2022/12/21 11:32:21;;;;;;;2.53;1.67;;;;;;;;;;5117217;28;20473;-57
2022/12/21 11:34:50;;;;;;;2.55;1.38;;;;;;;;;;5117910;28;20377;-57
2022/12/21 11:37:29;;;;;;;2.50;1.73;;;;;;;;;;5117182;28;20012;-58
2022/12/21 11:39:58;;;;;;;3.13;2.03;;;;;;;;;;5117215;28;20020;-57
2022/12/21 11:42:26;;;;;;;4.10;1.90;;;;;;;;;;5117240;28;20373;-58
2022/12/21 11:45:05;;;;;;;5.00;2.20;;;;;;;;;;5117845;28;20071;-57
2022/12/21 11:47:39;;;;;;;2.80;1.67;;;;;;;;;;5117931;28;20028;-57
2022/12/21 11:50:08;;;;;;;2.20;1.58;;;;;;;;;;5117348;28;20449;-57
2022/12/21 11:52:43;;;;;;;2.22;1.40;;;;;;;;;;5117038;28;20020;-56
2022/12/21 11:55:36;;;;;;;2.47;1.67;;;;;;;;;;5116816;28;20098;-58
2022/12/21 11:58:12;;;;;;;2.10;1.45;;;;;;;;;;5078342;28;20042;-57
2022/12/21 12:00:47;;;;;;;2.30;1.65;;;;;;;;;;5117025;28;20073;-57
2022/12/21 12:03:37;;;;;;;3.67;2.35;;;;;;;;;;5116547;28;20048;-57
2022/12/21 12:06:09;;;;;;;3.38;1.90;;;;;;;;;;5108222;28;20134;-57
2022/12/21 12:09:01;;;;;;;6.57;1.73;;;;;;;;;;5116827;28;20428;-57
2022/12/21 12:11:47;;;;;;;2.42;1.80;;;;;;;;;;5077675;28;20431;-57
2022/12/21 12:14:18;;;;;;;4.57;2.22;;;;;;;;;;5116636;28;20028;-57
2022/12/21 12:17:17;;;;;;;2.20;1.45;;;;;;;;;;5116531;28;20023;-57
2022/12/21 12:19:56;;;;;;;2.33;1.63;;;;;;;;;;5060393;28;20031;-57
2022/12/21 12:22:22;;;;;;;2.58;1.85;;;;;;;;;;5116509;28;20024;-57
2022/12/21 12:24:48;;;;;;;3.35;1.77;;;;;;;;;;5116765;28;20035;-57
2022/12/21 12:27:17;;;;;;;4.35;1.33;;;;;;;;;;5116697;28;20110;-57
2022/12/21 12:30:01;;;;;;;4.63;2.35;;;;;;;;;;5116079;28;20049;-56
2022/12/21 12:33:05;;;;;;;3.15;1.83;;;;;;;;;;5116227;28;20102;-57
2022/12/21 12:35:38;;;;;;;1.77;1.00;;;;;;;;;;5013473;28;20158;-57
2022/12/21 12:38:24;;;;;;;2.63;1.50;;;;;;;;;;5014033;28;20033;-54
2022/12/21 12:41:14;;;;;;;2.10;1.58;;;;;;;;;;5080983;28;20036;-57
2022/12/21 12:43:49;;;;;;;3.50;1.60;;;;;;;;;;5068799;28;20362;-59
2022/12/21 12:46:37;;;;;;;2.13;1.45;;;;;;;;;;5115278;28;20469;-59
2022/12/21 12:49:11;;;;;;;2.30;1.52;;;;;;;;;;5116241;28;20055;-59
2022/12/21 12:51:40;;;;;;;1.85;1.15;;;;;;;;;;5115748;28;20492;-59
2022/12/21 12:54:32;;;;;;;2.20;1.40;;;;;;;;;;5115928;28;20385;-59
2022/12/21 12:57:17;;;;;;;1.98;1.35;;;;;;;;;;5097349;28;20505;-59
2022/12/21 12:59:47;;;;;;;3.70;1.02;;;;;;;;;;5115728;28;20089;-59
2022/12/21 13:02:31;;;;;;;2.03;1.55;;;;;;;;;;5115675;28;20134;-59
2022/12/21 13:05:03;;;;;;;1.65;1.10;;;;;;;;;;5115805;28;20449;-59
2022/12/21 13:07:36;;;;;;;1.73;1.30;;;;;;;;;;5114686;28;20501;-59
2022/12/21 13:10:24;;;;;;;2.10;1.20;;;;;;;;;;5115733;28;20028;-59
2022/12/21 13:12:53;;;;;;;3.85;1.73;;;;;;;;;;5115331;28;20019;-59
2022/12/21 13:15:22;;;;;;;3.60;1.73;;;;;;;;;;5116182;28;20039;-59
2022/12/21 13:17:51;;;;;;;3.30;1.33;;;;;;;;;;5115227;28;20462;-59
2022/12/21 13:20:18;;;;;;;1.80;1.17;;;;;;;;;;5115300;28;20066;-59
2022/12/21 13:22:45;;;;;;;2.72;1.13;;;;;;;;;;5115444;28;20513;-59
2022/12/21 13:25:18;;;;;;;2.33;1.48;;;;;;;;;;5115144;28;20080;-59
2022/12/21 13:27:45;;;;;;;2.58;1.13;;;;;;;;;;5115395;28;20047;-59
2022/12/21 13:30:14;;;;;;;1.88;1.13;;;;;;;;;;5115334;28;20024;-59
2022/12/21 13:32:49;;;;;;;2.90;1.60;;;;;;;;;;5114914;28;20418;-59
2022/12/21 13:35:23;;;;;;;1.60;0.98;;;;;;;;;;5115250;28;20061;-59
2022/12/21 13:37:54;;;;;;;3.45;1.92;;;;;;;;;;5114889;28;20351;-59
2022/12/21 13:40:32;;;;;;;2.70;1.35;;;;;;;;;;5115471;28;20027;-59
2022/12/21 13:43:03;;;;;;;3.10;1.55;;;;;;;;;;5114884;28;20028;-59
2022/12/21 13:45:37;;;;;;;2.95;1.10;;;;;;;;;;5115099;28;20035;-59
2022/12/21 13:48:04;;;;;;;1.52;0.88;;;;;;;;;;5115544;28;20043;-59
2022/12/21 13:50:39;;;;;;;1.40;0.90;;;;;;;;;;5114614;28;20020;-59
2022/12/21 13:53:23;;;;;;;3.28;1.48;;;;;;;;;;5096700;28;20150;-59
2022/12/21 13:56:01;;;;;;;2.17;0.98;;;;;;;;;;5114847;28;20077;-59
2022/12/21 13:58:47;;;;;;;1.55;1.08;;;;;;;;;;5114679;28;20034;-58
2022/12/21 14:01:31;;;;;;;2.95;1.27;;;;;;;;;;5096727;28;20039;-58
2022/12/21 14:03:58;;;;;;;2.08;0.95;;;;;;;;;;5114556;28;20081;-60
2022/12/21 14:06:44;;;;;;;1.80;0.80;;;;;;;;;;5114029;28;20503;-60
2022/12/21 14:09:16;;;;;;;1.77;0.85;;;;;;;;;;5114831;28;20091;-60
2022/12/21 14:11:50;;;;;;;1.77;1.00;;;;;;;;;;5114720;28;20038;-60
2022/12/21 14:14:48;;;;;;;1.83;1.00;;;;;;;;;;5114340;28;20550;-60
2022/12/21 14:17:17;;;;;;;2.25;1.23;;;;;;;;;;5059183;28;20039;-60
2022/12/21 14:19:53;;;;;;;2.30;1.52;;;;;;;;;;5114810;28;20073;-60
2022/12/21 14:22:31;;;;;;;1.77;0.98;;;;;;;;;;5114826;28;20034;-60
2022/12/21 14:25:02;;;;;;;2.95;0.77;;;;;;;;;;5114503;28;20063;-60
2022/12/21 14:27:28;;;;;;;;;;;;;;;;;;5114915;28;20024;-60
2022/12/21 14:30:03;;;;;;;1.40;0.90;;;;;;;;;;5113552;28;19994;-60
2022/12/21 14:32:29;;;;;;;1.88;1.20;;;;;;;;;;5114365;28;20106;-60
2022/12/21 14:35:00;;;;;;;1.63;0.82;;;;;;;;;;5114786;28;20432;-60
2022/12/21 14:37:26;;;;;;;2.28;1.13;;;;;;;;;;5114717;28;20032;-60
2022/12/21 14:40:11;;;;;;;1.73;1.08;;;;;;;;;;5113856;28;20106;-60
2022/12/21 14:42:43;;;;;;;1.83;0.98;;;;;;;;;;5114332;28;20034;-60
2022/12/21 14:45:09;;;;;;;2.78;1.17;;;;;;;;;;5114612;28;20032;-60
2022/12/21 14:47:36;;;;;;;1.85;0.80;;;;;;;;;;5113944;28;20037;-60
2022/12/21 14:50:22;;;;;;;2.55;0.98;;;;;;;;;;5114243;28;20027;-58
2022/12/21 14:53:06;;;;;;;3.97;1.45;;;;;;;;;;5114005;28;20034;-58
2022/12/21 14:55:35;;;;;;;2.08;0.80;;;;;;;;;;5114140;28;20035;-58
2022/12/21 14:58:02;;;;;;;1.35;0.88;;;;;;;;;;5114768;28;20368;-58
2022/12/21 15:00:29;;;;;;;2.70;1.88;;;;;;;;;;5113913;28;20031;-58
2022/12/21 15:02:58;;;;;;;1.85;1.05;;;;;;;;;;5114387;28;20072;-58
2022/12/21 15:05:23;;;;;;;1.27;0.60;;;;;;;;;;5114181;28;20381;-58
2022/12/21 15:07:52;;;;;;;1.38;0.77;;;;;;;;;;5114077;28;20073;-58
2022/12/21 15:10:23;;;;;;;2.38;1.15;;;;;;;;;;5114129;28;20153;-59
2022/12/21 15:12:51;;;;;;;2.90;1.55;;;;;;;;;;5113843;28;20373;-59
2022/12/21 15:15:34;;;;;;;1.85;1.40;;;;;;;;;;5114150;28;20520;-59